sensor_id;sensor_type;location;lat;lon;timestamp;P1;durP1;ratioP1;P2;durP2;ratioP2
23384;SDS011;11865;45.394;10.978;2022-08-26T00:01:51;7.63;;;5.28;;
23384;SDS011;11865;45.394;10.978;2022-08-26T00:04:20;9.02;;;5.22;;
23384;SDS011;11865;45.394;10.978;2022-08-26T00:06:50;8.70;;;5.40;;
23384;SDS011;11865;45.394;10.978;2022-08-26T00:09:18;7.20;;;4.72;;
23384;SDS011;11865;45.394;10.978;2022-08-26T00:11:45;10.77;;;5.32;;
23384;SDS011;11865;45.394;10.978;2022-08-26T00:14:14;8.88;;;4.97;;
23384;SDS011;11865;45.394;10.978;2022-08-26T00:16:42;9.02;;;5.30;;
23384;SDS011;11865;45.394;10.978;2022-08-26T00:21:42;7.40;;;5.07;;
23384;SDS011;11865;45.394;10.978;2022-08-26T00:24:09;8.48;;;5.20;;
23384;SDS011;11865;45.394;10.978;2022-08-26T00:26:39;6.72;;;5.18;;
23384;SDS011;11865;45.394;10.978;2022-08-26T00:29:07;8.75;;;4.78;;
23384;SDS011;11865;45.394;10.978;2022-08-26T00:31:36;7.20;;;5.40;;
23384;SDS011;11865;45.394;10.978;2022-08-26T00:34:05;8.27;;;4.63;;
23384;SDS011;11865;45.394;10.978;2022-08-26T00:36:35;9.90;;;4.60;;
23384;SDS011;11865;45.394;10.978;2022-08-26T00:39:05;9.32;;;4.97;;
23384;SDS011;11865;45.394;10.978;2022-08-26T00:41:34;9.68;;;4.78;;
23384;SDS011;11865;45.394;10.978;2022-08-26T00:44:02;9.30;;;5.28;;
23384;SDS011;11865;45.394;10.978;2022-08-26T00:46:32;6.68;;;4.53;;
23384;SDS011;11865;45.394;10.978;2022-08-26T00:49:03;22.33;;;5.25;;
23384;SDS011;11865;45.394;10.978;2022-08-26T00:51:43;9.18;;;5.28;;
23384;SDS011;11865;45.394;10.978;2022-08-26T00:54:12;10.80;;;5.25;;
23384;SDS011;11865;45.394;10.978;2022-08-26T00:56:42;7.30;;;4.80;;
23384;SDS011;11865;45.394;10.978;2022-08-26T00:59:14;7.85;;;4.82;;
23384;SDS011;11865;45.394;10.978;2022-08-26T01:01:43;13.68;;;6.13;;
23384;SDS011;11865;45.394;10.978;2022-08-26T01:04:12;10.07;;;5.28;;
23384;SDS011;11865;45.394;10.978;2022-08-26T01:06:41;6.82;;;4.95;;
23384;SDS011;11865;45.394;10.978;2022-08-26T01:09:10;7.72;;;5.10;;
23384;SDS011;11865;45.394;10.978;2022-08-26T01:11:38;6.95;;;4.95;;
23384;SDS011;11865;45.394;10.978;2022-08-26T01:14:06;7.50;;;4.97;;
23384;SDS011;11865;45.394;10.978;2022-08-26T01:16:35;7.05;;;5.07;;
23384;SDS011;11865;45.394;10.978;2022-08-26T01:19:09;6.57;;;5.10;;
23384;SDS011;11865;45.394;10.978;2022-08-26T01:21:45;8.20;;;5.18;;
23384;SDS011;11865;45.394;10.978;2022-08-26T01:24:14;9.27;;;5.28;;
23384;SDS011;11865;45.394;10.978;2022-08-26T01:26:42;9.18;;;6.13;;
23384;SDS011;11865;45.394;10.978;2022-08-26T01:29:15;14.00;;;5.30;;
23384;SDS011;11865;45.394;10.978;2022-08-26T01:31:47;8.50;;;5.57;;
23384;SDS011;11865;45.394;10.978;2022-08-26T01:34:24;7.15;;;5.53;;
23384;SDS011;11865;45.394;10.978;2022-08-26T01:37:00;8.73;;;5.72;;
23384;SDS011;11865;45.394;10.978;2022-08-26T01:39:31;7.10;;;5.20;;
23384;SDS011;11865;45.394;10.978;2022-08-26T01:41:59;10.80;;;5.20;;
23384;SDS011;11865;45.394;10.978;2022-08-26T01:44:30;8.13;;;5.05;;
23384;SDS011;11865;45.394;10.978;2022-08-26T01:46:58;7.35;;;5.03;;
23384;SDS011;11865;45.394;10.978;2022-08-26T01:49:30;9.60;;;5.00;;
23384;SDS011;11865;45.394;10.978;2022-08-26T01:52:00;8.02;;;5.07;;
23384;SDS011;11865;45.394;10.978;2022-08-26T01:54:30;7.43;;;4.72;;
23384;SDS011;11865;45.394;10.978;2022-08-26T01:56:58;6.85;;;4.45;;
23384;SDS011;11865;45.394;10.978;2022-08-26T01:59:27;8.55;;;5.07;;
23384;SDS011;11865;45.394;10.978;2022-08-26T02:01:55;13.02;;;5.03;;
23384;SDS011;11865;45.394;10.978;2022-08-26T02:04:31;7.90;;;4.68;;
23384;SDS011;11865;45.394;10.978;2022-08-26T02:07:02;9.13;;;5.22;;
23384;SDS011;11865;45.394;10.978;2022-08-26T02:09:31;8.18;;;5.10;;
23384;SDS011;11865;45.394;10.978;2022-08-26T02:12:07;8.02;;;5.22;;
23384;SDS011;11865;45.394;10.978;2022-08-26T02:14:37;6.63;;;5.40;;
23384;SDS011;11865;45.394;10.978;2022-08-26T02:17:09;9.32;;;5.10;;
23384;SDS011;11865;45.394;10.978;2022-08-26T02:19:39;7.30;;;4.93;;
23384;SDS011;11865;45.394;10.978;2022-08-26T02:22:09;13.02;;;5.13;;
23384;SDS011;11865;45.394;10.978;2022-08-26T02:27:07;8.75;;;5.07;;
23384;SDS011;11865;45.394;10.978;2022-08-26T02:29:35;9.43;;;5.25;;
23384;SDS011;11865;45.394;10.978;2022-08-26T02:32:05;9.27;;;5.30;;
23384;SDS011;11865;45.394;10.978;2022-08-26T02:34:33;11.43;;;5.78;;
23384;SDS011;11865;45.394;10.978;2022-08-26T02:37:04;7.75;;;5.03;;
23384;SDS011;11865;45.394;10.978;2022-08-26T02:39:33;5.75;;;4.80;;
23384;SDS011;11865;45.394;10.978;2022-08-26T02:42:01;7.85;;;5.07;;
23384;SDS011;11865;45.394;10.978;2022-08-26T02:44:29;7.93;;;5.32;;
23384;SDS011;11865;45.394;10.978;2022-08-26T02:46:59;7.05;;;5.22;;
23384;SDS011;11865;45.394;10.978;2022-08-26T02:49:27;7.18;;;5.60;;
23384;SDS011;11865;45.394;10.978;2022-08-26T02:51:56;6.05;;;5.13;;
23384;SDS011;11865;45.394;10.978;2022-08-26T02:54:27;12.18;;;5.30;;
23384;SDS011;11865;45.394;10.978;2022-08-26T02:56:55;7.72;;;5.65;;
23384;SDS011;11865;45.394;10.978;2022-08-26T02:59:23;7.72;;;5.18;;
23384;SDS011;11865;45.394;10.978;2022-08-26T03:01:52;8.45;;;5.53;;
23384;SDS011;11865;45.394;10.978;2022-08-26T03:04:22;8.40;;;5.05;;
23384;SDS011;11865;45.394;10.978;2022-08-26T03:06:52;7.55;;;5.88;;
23384;SDS011;11865;45.394;10.978;2022-08-26T03:09:21;9.85;;;5.78;;
23384;SDS011;11865;45.394;10.978;2022-08-26T03:11:49;10.00;;;5.40;;
23384;SDS011;11865;45.394;10.978;2022-08-26T03:14:17;8.88;;;5.70;;
23384;SDS011;11865;45.394;10.978;2022-08-26T03:16:46;10.32;;;5.38;;
23384;SDS011;11865;45.394;10.978;2022-08-26T03:19:16;10.60;;;5.97;;
23384;SDS011;11865;45.394;10.978;2022-08-26T03:21:44;9.10;;;6.05;;
23384;SDS011;11865;45.394;10.978;2022-08-26T03:24:13;7.05;;;5.75;;
23384;SDS011;11865;45.394;10.978;2022-08-26T03:26:41;9.35;;;6.30;;
23384;SDS011;11865;45.394;10.978;2022-08-26T03:29:19;8.05;;;5.53;;
23384;SDS011;11865;45.394;10.978;2022-08-26T03:32:06;9.77;;;6.35;;
23384;SDS011;11865;45.394;10.978;2022-08-26T03:34:34;8.25;;;5.70;;
23384;SDS011;11865;45.394;10.978;2022-08-26T03:37:04;6.82;;;6.13;;
23384;SDS011;11865;45.394;10.978;2022-08-26T03:39:32;7.57;;;5.60;;
23384;SDS011;11865;45.394;10.978;2022-08-26T03:42:00;11.13;;;6.13;;
23384;SDS011;11865;45.394;10.978;2022-08-26T03:44:28;7.07;;;5.93;;
23384;SDS011;11865;45.394;10.978;2022-08-26T03:46:55;7.40;;;6.45;;
23384;SDS011;11865;45.394;10.978;2022-08-26T03:49:24;9.82;;;5.93;;
23384;SDS011;11865;45.394;10.978;2022-08-26T03:51:54;8.85;;;6.18;;
23384;SDS011;11865;45.394;10.978;2022-08-26T03:54:22;10.52;;;6.25;;
23384;SDS011;11865;45.394;10.978;2022-08-26T03:56:50;12.43;;;6.00;;
23384;SDS011;11865;45.394;10.978;2022-08-26T03:59:18;6.63;;;5.93;;
23384;SDS011;11865;45.394;10.978;2022-08-26T04:01:46;8.65;;;6.20;;
23384;SDS011;11865;45.394;10.978;2022-08-26T04:04:14;9.95;;;6.20;;
23384;SDS011;11865;45.394;10.978;2022-08-26T04:06:42;8.52;;;5.53;;
23384;SDS011;11865;45.394;10.978;2022-08-26T04:09:11;8.63;;;5.60;;
23384;SDS011;11865;45.394;10.978;2022-08-26T04:11:41;8.93;;;5.70;;
23384;SDS011;11865;45.394;10.978;2022-08-26T04:14:14;9.32;;;6.03;;
23384;SDS011;11865;45.394;10.978;2022-08-26T04:16:46;8.07;;;5.75;;
23384;SDS011;11865;45.394;10.978;2022-08-26T04:19:14;8.18;;;5.75;;
23384;SDS011;11865;45.394;10.978;2022-08-26T04:21:43;8.18;;;5.88;;
23384;SDS011;11865;45.394;10.978;2022-08-26T04:24:13;10.20;;;6.68;;
23384;SDS011;11865;45.394;10.978;2022-08-26T04:26:41;9.07;;;6.25;;
23384;SDS011;11865;45.394;10.978;2022-08-26T04:29:11;10.48;;;5.88;;
23384;SDS011;11865;45.394;10.978;2022-08-26T04:31:39;11.07;;;5.80;;
23384;SDS011;11865;45.394;10.978;2022-08-26T04:34:07;10.45;;;5.78;;
23384;SDS011;11865;45.394;10.978;2022-08-26T04:36:36;8.80;;;6.45;;
23384;SDS011;11865;45.394;10.978;2022-08-26T04:39:04;14.43;;;6.45;;
23384;SDS011;11865;45.394;10.978;2022-08-26T04:41:32;7.25;;;5.97;;
23384;SDS011;11865;45.394;10.978;2022-08-26T04:44:01;8.68;;;6.25;;
23384;SDS011;11865;45.394;10.978;2022-08-26T04:46:32;15.10;;;6.57;;
23384;SDS011;11865;45.394;10.978;2022-08-26T04:49:01;10.57;;;6.20;;
23384;SDS011;11865;45.394;10.978;2022-08-26T04:51:29;6.85;;;5.78;;
23384;SDS011;11865;45.394;10.978;2022-08-26T04:53:59;10.15;;;6.80;;
23384;SDS011;11865;45.394;10.978;2022-08-26T04:56:31;8.07;;;6.13;;
23384;SDS011;11865;45.394;10.978;2022-08-26T04:59:00;8.07;;;6.25;;
23384;SDS011;11865;45.394;10.978;2022-08-26T05:01:32;8.48;;;6.13;;
23384;SDS011;11865;45.394;10.978;2022-08-26T05:04:05;10.23;;;6.43;;
23384;SDS011;11865;45.394;10.978;2022-08-26T05:06:34;9.40;;;6.47;;
23384;SDS011;11865;45.394;10.978;2022-08-26T05:09:03;8.48;;;5.65;;
23384;SDS011;11865;45.394;10.978;2022-08-26T05:11:32;8.80;;;6.20;;
23384;SDS011;11865;45.394;10.978;2022-08-26T05:13:59;12.20;;;6.03;;
23384;SDS011;11865;45.394;10.978;2022-08-26T05:16:28;10.68;;;5.90;;
23384;SDS011;11865;45.394;10.978;2022-08-26T05:18:56;8.27;;;6.10;;
23384;SDS011;11865;45.394;10.978;2022-08-26T05:21:24;8.85;;;5.90;;
23384;SDS011;11865;45.394;10.978;2022-08-26T05:23:52;10.20;;;6.00;;
23384;SDS011;11865;45.394;10.978;2022-08-26T05:26:21;7.38;;;5.78;;
23384;SDS011;11865;45.394;10.978;2022-08-26T05:28:51;11.65;;;6.22;;
23384;SDS011;11865;45.394;10.978;2022-08-26T05:31:21;10.20;;;6.05;;
23384;SDS011;11865;45.394;10.978;2022-08-26T05:33:49;11.93;;;5.82;;
23384;SDS011;11865;45.394;10.978;2022-08-26T05:36:19;12.52;;;6.35;;
23384;SDS011;11865;45.394;10.978;2022-08-26T05:38:48;10.18;;;5.75;;
23384;SDS011;11865;45.394;10.978;2022-08-26T05:41:17;11.63;;;5.47;;
23384;SDS011;11865;45.394;10.978;2022-08-26T05:43:46;9.05;;;5.35;;
23384;SDS011;11865;45.394;10.978;2022-08-26T05:46:14;8.63;;;4.95;;
23384;SDS011;11865;45.394;10.978;2022-08-26T05:48:43;7.93;;;5.28;;
23384;SDS011;11865;45.394;10.978;2022-08-26T05:51:13;7.93;;;4.80;;
23384;SDS011;11865;45.394;10.978;2022-08-26T05:53:41;9.45;;;4.68;;
23384;SDS011;11865;45.394;10.978;2022-08-26T05:56:20;5.50;;;4.45;;
23384;SDS011;11865;45.394;10.978;2022-08-26T05:58:54;6.90;;;4.53;;
23384;SDS011;11865;45.394;10.978;2022-08-26T06:01:26;7.15;;;4.43;;
23384;SDS011;11865;45.394;10.978;2022-08-26T06:03:56;11.00;;;5.03;;
23384;SDS011;11865;45.394;10.978;2022-08-26T06:06:31;6.40;;;5.50;;
23384;SDS011;11865;45.394;10.978;2022-08-26T06:09:01;6.78;;;4.57;;
23384;SDS011;11865;45.394;10.978;2022-08-26T06:11:29;8.00;;;4.53;;
23384;SDS011;11865;45.394;10.978;2022-08-26T06:13:59;6.78;;;4.70;;
23384;SDS011;11865;45.394;10.978;2022-08-26T06:16:30;5.20;;;4.22;;
23384;SDS011;11865;45.394;10.978;2022-08-26T06:19:00;6.95;;;4.55;;
23384;SDS011;11865;45.394;10.978;2022-08-26T06:21:29;9.02;;;4.47;;
23384;SDS011;11865;45.394;10.978;2022-08-26T06:23:59;7.43;;;4.63;;
23384;SDS011;11865;45.394;10.978;2022-08-26T06:26:47;9.05;;;4.40;;
23384;SDS011;11865;45.394;10.978;2022-08-26T06:29:16;6.13;;;4.25;;
23384;SDS011;11865;45.394;10.978;2022-08-26T06:31:50;15.27;;;5.10;;
23384;SDS011;11865;45.394;10.978;2022-08-26T06:34:18;7.78;;;4.95;;
23384;SDS011;11865;45.394;10.978;2022-08-26T06:36:47;9.43;;;4.85;;
23384;SDS011;11865;45.394;10.978;2022-08-26T06:39:18;7.05;;;4.60;;
23384;SDS011;11865;45.394;10.978;2022-08-26T06:41:46;7.38;;;4.43;;
23384;SDS011;11865;45.394;10.978;2022-08-26T06:44:16;6.13;;;4.40;;
23384;SDS011;11865;45.394;10.978;2022-08-26T06:46:44;7.93;;;4.43;;
23384;SDS011;11865;45.394;10.978;2022-08-26T06:51:43;7.93;;;5.07;;
23384;SDS011;11865;45.394;10.978;2022-08-26T06:54:14;8.48;;;4.95;;
23384;SDS011;11865;45.394;10.978;2022-08-26T06:56:42;7.95;;;5.15;;
23384;SDS011;11865;45.394;10.978;2022-08-26T06:59:13;5.47;;;4.30;;
23384;SDS011;11865;45.394;10.978;2022-08-26T07:01:42;8.15;;;4.40;;
23384;SDS011;11865;45.394;10.978;2022-08-26T07:04:15;15.07;;;5.00;;
23384;SDS011;11865;45.394;10.978;2022-08-26T07:06:48;10.90;;;4.95;;
23384;SDS011;11865;45.394;10.978;2022-08-26T07:09:22;7.05;;;4.50;;
23384;SDS011;11865;45.394;10.978;2022-08-26T07:11:52;8.05;;;4.90;;
23384;SDS011;11865;45.394;10.978;2022-08-26T07:14:21;7.28;;;5.15;;
23384;SDS011;11865;45.394;10.978;2022-08-26T07:16:52;7.85;;;4.60;;
23384;SDS011;11865;45.394;10.978;2022-08-26T07:19:20;12.88;;;5.10;;
23384;SDS011;11865;45.394;10.978;2022-08-26T07:21:57;8.77;;;4.40;;
23384;SDS011;11865;45.394;10.978;2022-08-26T07:24:25;8.57;;;4.90;;
23384;SDS011;11865;45.394;10.978;2022-08-26T07:26:58;11.38;;;5.13;;
23384;SDS011;11865;45.394;10.978;2022-08-26T07:31:54;8.93;;;5.43;;
23384;SDS011;11865;45.394;10.978;2022-08-26T07:34:23;11.32;;;4.95;;
23384;SDS011;11865;45.394;10.978;2022-08-26T07:36:52;8.93;;;4.63;;
23384;SDS011;11865;45.394;10.978;2022-08-26T07:39:21;8.98;;;4.60;;
23384;SDS011;11865;45.394;10.978;2022-08-26T07:41:50;7.20;;;4.43;;
23384;SDS011;11865;45.394;10.978;2022-08-26T07:44:18;10.20;;;4.50;;
23384;SDS011;11865;45.394;10.978;2022-08-26T07:46:46;9.13;;;5.13;;
23384;SDS011;11865;45.394;10.978;2022-08-26T07:49:22;8.50;;;4.43;;
23384;SDS011;11865;45.394;10.978;2022-08-26T07:51:53;6.03;;;4.10;;
23384;SDS011;11865;45.394;10.978;2022-08-26T07:54:22;5.43;;;4.50;;
23384;SDS011;11865;45.394;10.978;2022-08-26T07:56:53;9.65;;;4.53;;
23384;SDS011;11865;45.394;10.978;2022-08-26T07:59:21;9.90;;;4.65;;
23384;SDS011;11865;45.394;10.978;2022-08-26T08:01:49;10.40;;;5.65;;
23384;SDS011;11865;45.394;10.978;2022-08-26T08:04:18;7.50;;;5.07;;
23384;SDS011;11865;45.394;10.978;2022-08-26T08:06:52;10.05;;;5.07;;
23384;SDS011;11865;45.394;10.978;2022-08-26T08:09:20;7.88;;;5.43;;
23384;SDS011;11865;45.394;10.978;2022-08-26T08:11:48;8.15;;;5.18;;
23384;SDS011;11865;45.394;10.978;2022-08-26T08:14:17;7.68;;;4.97;;
23384;SDS011;11865;45.394;10.978;2022-08-26T08:16:48;13.45;;;5.13;;
23384;SDS011;11865;45.394;10.978;2022-08-26T08:19:20;9.35;;;5.05;;
23384;SDS011;11865;45.394;10.978;2022-08-26T08:21:50;11.63;;;5.50;;
23384;SDS011;11865;45.394;10.978;2022-08-26T08:24:20;10.80;;;5.80;;
23384;SDS011;11865;45.394;10.978;2022-08-26T08:26:49;8.95;;;5.20;;
23384;SDS011;11865;45.394;10.978;2022-08-26T08:29:17;7.15;;;5.20;;
23384;SDS011;11865;45.394;10.978;2022-08-26T08:31:44;8.23;;;5.47;;
23384;SDS011;11865;45.394;10.978;2022-08-26T08:34:25;8.18;;;5.45;;
23384;SDS011;11865;45.394;10.978;2022-08-26T08:36:52;6.97;;;5.47;;
23384;SDS011;11865;45.394;10.978;2022-08-26T08:39:20;8.85;;;6.30;;
23384;SDS011;11865;45.394;10.978;2022-08-26T08:44:37;9.20;;;6.45;;
23384;SDS011;11865;45.394;10.978;2022-08-26T08:47:16;12.15;;;6.93;;
23384;SDS011;11865;45.394;10.978;2022-08-26T08:49:46;9.77;;;6.75;;
23384;SDS011;11865;45.394;10.978;2022-08-26T08:52:49;10.55;;;5.60;;
23384;SDS011;11865;45.394;10.978;2022-08-26T08:55:08;11.43;;;5.82;;
23384;SDS011;11865;45.394;10.978;2022-08-26T08:57:49;8.25;;;5.38;;
23384;SDS011;11865;45.394;10.978;2022-08-26T09:00:20;14.73;;;6.63;;
23384;SDS011;11865;45.394;10.978;2022-08-26T09:02:58;9.93;;;6.55;;
23384;SDS011;11865;45.394;10.978;2022-08-26T09:05:28;12.20;;;6.75;;
23384;SDS011;11865;45.394;10.978;2022-08-26T09:08:15;9.05;;;5.40;;
23384;SDS011;11865;45.394;10.978;2022-08-26T09:10:53;8.32;;;5.70;;
23384;SDS011;11865;45.394;10.978;2022-08-26T09:13:22;8.57;;;5.57;;
23384;SDS011;11865;45.394;10.978;2022-08-26T09:23:30;13.93;;;7.22;;
23384;SDS011;11865;45.394;10.978;2022-08-26T09:26:15;11.70;;;6.35;;
23384;SDS011;11865;45.394;10.978;2022-08-26T09:28:48;10.23;;;6.63;;
23384;SDS011;11865;45.394;10.978;2022-08-26T09:31:31;8.52;;;5.25;;
23384;SDS011;11865;45.394;10.978;2022-08-26T09:42:04;10.75;;;6.57;;
23384;SDS011;11865;45.394;10.978;2022-08-26T09:44:33;9.38;;;7.45;;
23384;SDS011;11865;45.394;10.978;2022-08-26T09:47:03;9.80;;;6.22;;
23384;SDS011;11865;45.394;10.978;2022-08-26T09:49:33;11.48;;;6.60;;
23384;SDS011;11865;45.394;10.978;2022-08-26T09:54:36;11.27;;;6.78;;
23384;SDS011;11865;45.394;10.978;2022-08-26T09:59:44;15.65;;;8.35;;
23384;SDS011;11865;45.394;10.978;2022-08-26T10:02:16;14.60;;;8.52;;
23384;SDS011;11865;45.394;10.978;2022-08-26T10:04:50;12.05;;;7.38;;
23384;SDS011;11865;45.394;10.978;2022-08-26T10:07:35;13.30;;;7.20;;
23384;SDS011;11865;45.394;10.978;2022-08-26T10:10:19;14.25;;;7.57;;
23384;SDS011;11865;45.394;10.978;2022-08-26T10:12:50;11.50;;;7.07;;
23384;SDS011;11865;45.394;10.978;2022-08-26T10:15:20;12.63;;;7.82;;
23384;SDS011;11865;45.394;10.978;2022-08-26T10:20:20;11.45;;;7.20;;
23384;SDS011;11865;45.394;10.978;2022-08-26T10:22:54;12.35;;;6.97;;
23384;SDS011;11865;45.394;10.978;2022-08-26T10:25:27;10.32;;;7.18;;
23384;SDS011;11865;45.394;10.978;2022-08-26T10:27:58;11.45;;;7.10;;
23384;SDS011;11865;45.394;10.978;2022-08-26T10:30:46;9.00;;;6.85;;
23384;SDS011;11865;45.394;10.978;2022-08-26T10:33:15;9.15;;;6.97;;
23384;SDS011;11865;45.394;10.978;2022-08-26T10:35:49;13.10;;;8.00;;
23384;SDS011;11865;45.394;10.978;2022-08-26T10:38:19;11.80;;;7.15;;
23384;SDS011;11865;45.394;10.978;2022-08-26T10:40:51;15.77;;;6.60;;
23384;SDS011;11865;45.394;10.978;2022-08-26T10:43:21;9.73;;;7.40;;
23384;SDS011;11865;45.394;10.978;2022-08-26T10:45:52;10.13;;;6.70;;
23384;SDS011;11865;45.394;10.978;2022-08-26T10:48:29;13.38;;;7.30;;
23384;SDS011;11865;45.394;10.978;2022-08-26T10:51:01;14.68;;;7.30;;
23384;SDS011;11865;45.394;10.978;2022-08-26T11:01:16;11.45;;;7.07;;
23384;SDS011;11865;45.394;10.978;2022-08-26T11:06:35;10.48;;;6.75;;
23384;SDS011;11865;45.394;10.978;2022-08-26T11:09:04;12.02;;;6.93;;
23384;SDS011;11865;45.394;10.978;2022-08-26T11:16:55;11.88;;;6.28;;
23384;SDS011;11865;45.394;10.978;2022-08-26T11:40:08;10.82;;;6.75;;
23384;SDS011;11865;45.394;10.978;2022-08-26T11:42:38;12.15;;;6.68;;
23384;SDS011;11865;45.394;10.978;2022-08-26T11:45:30;9.70;;;6.18;;
23384;SDS011;11865;45.394;10.978;2022-08-26T11:47:58;11.43;;;6.70;;
23384;SDS011;11865;45.394;10.978;2022-08-26T11:50:40;9.48;;;6.60;;
23384;SDS011;11865;45.394;10.978;2022-08-26T11:53:18;10.70;;;7.20;;
23384;SDS011;11865;45.394;10.978;2022-08-26T11:55:49;10.07;;;6.70;;
23384;SDS011;11865;45.394;10.978;2022-08-26T11:58:19;13.52;;;6.60;;
23384;SDS011;11865;45.394;10.978;2022-08-26T12:03:20;8.68;;;6.70;;
23384;SDS011;11865;45.394;10.978;2022-08-26T12:05:50;12.38;;;7.30;;
23384;SDS011;11865;45.394;10.978;2022-08-26T12:08:19;6.68;;;5.70;;
23384;SDS011;11865;45.394;10.978;2022-08-26T12:10:47;8.52;;;6.50;;
23384;SDS011;11865;45.394;10.978;2022-08-26T12:13:22;13.77;;;7.00;;
23384;SDS011;11865;45.394;10.978;2022-08-26T12:15:56;10.48;;;6.60;;
23384;SDS011;11865;45.394;10.978;2022-08-26T12:18:31;11.40;;;6.30;;
23384;SDS011;11865;45.394;10.978;2022-08-26T12:21:09;14.68;;;6.28;;
23384;SDS011;11865;45.394;10.978;2022-08-26T12:23:39;9.50;;;6.88;;
23384;SDS011;11865;45.394;10.978;2022-08-26T12:26:10;9.77;;;6.57;;
23384;SDS011;11865;45.394;10.978;2022-08-26T12:28:49;10.00;;;7.82;;
23384;SDS011;11865;45.394;10.978;2022-08-26T12:31:19;11.23;;;7.13;;
23384;SDS011;11865;45.394;10.978;2022-08-26T12:33:47;8.95;;;6.80;;
23384;SDS011;11865;45.394;10.978;2022-08-26T12:36:20;9.18;;;6.68;;
23384;SDS011;11865;45.394;10.978;2022-08-26T12:38:48;8.50;;;6.03;;
23384;SDS011;11865;45.394;10.978;2022-08-26T12:44:32;8.63;;;6.22;;
23384;SDS011;11865;45.394;10.978;2022-08-26T12:47:04;12.73;;;7.03;;
23384;SDS011;11865;45.394;10.978;2022-08-26T12:49:37;9.15;;;6.05;;
23384;SDS011;11865;45.394;10.978;2022-08-26T12:52:06;11.30;;;6.55;;
23384;SDS011;11865;45.394;10.978;2022-08-26T12:54:36;8.38;;;6.28;;
23384;SDS011;11865;45.394;10.978;2022-08-26T12:57:27;9.02;;;6.30;;
23384;SDS011;11865;45.394;10.978;2022-08-26T13:03:01;8.77;;;5.95;;
23384;SDS011;11865;45.394;10.978;2022-08-26T13:05:31;7.95;;;6.18;;
23384;SDS011;11865;45.394;10.978;2022-08-26T13:10:40;10.68;;;7.25;;
23384;SDS011;11865;45.394;10.978;2022-08-26T13:13:08;12.77;;;7.78;;
23384;SDS011;11865;45.394;10.978;2022-08-26T13:15:36;11.82;;;7.22;;
23384;SDS011;11865;45.394;10.978;2022-08-26T13:18:04;8.98;;;7.00;;
23384;SDS011;11865;45.394;10.978;2022-08-26T13:20:32;11.10;;;6.30;;
23384;SDS011;11865;45.394;10.978;2022-08-26T13:23:01;11.50;;;6.13;;
23384;SDS011;11865;45.394;10.978;2022-08-26T13:25:28;8.38;;;6.43;;
23384;SDS011;11865;45.394;10.978;2022-08-26T13:27:56;8.77;;;6.63;;
23384;SDS011;11865;45.394;10.978;2022-08-26T13:30:24;8.93;;;6.78;;
23384;SDS011;11865;45.394;10.978;2022-08-26T13:32:53;10.32;;;6.13;;
23384;SDS011;11865;45.394;10.978;2022-08-26T13:35:23;8.43;;;6.07;;
23384;SDS011;11865;45.394;10.978;2022-08-26T13:37:51;10.00;;;6.65;;
23384;SDS011;11865;45.394;10.978;2022-08-26T13:40:19;8.48;;;6.38;;
23384;SDS011;11865;45.394;10.978;2022-08-26T13:42:46;8.02;;;6.25;;
23384;SDS011;11865;45.394;10.978;2022-08-26T13:45:15;10.27;;;6.35;;
23384;SDS011;11865;45.394;10.978;2022-08-26T13:47:43;10.50;;;6.18;;
23384;SDS011;11865;45.394;10.978;2022-08-26T13:50:11;9.57;;;6.35;;
23384;SDS011;11865;45.394;10.978;2022-08-26T13:52:38;11.45;;;6.60;;
23384;SDS011;11865;45.394;10.978;2022-08-26T13:55:06;9.02;;;6.03;;
23384;SDS011;11865;45.394;10.978;2022-08-26T13:57:34;8.32;;;5.72;;
23384;SDS011;11865;45.394;10.978;2022-08-26T14:00:03;8.63;;;5.75;;
23384;SDS011;11865;45.394;10.978;2022-08-26T14:02:34;9.25;;;5.82;;
23384;SDS011;11865;45.394;10.978;2022-08-26T14:05:02;10.88;;;6.22;;
23384;SDS011;11865;45.394;10.978;2022-08-26T14:07:30;7.05;;;5.50;;
23384;SDS011;11865;45.394;10.978;2022-08-26T14:09:58;10.57;;;6.45;;
23384;SDS011;11865;45.394;10.978;2022-08-26T14:12:27;12.60;;;6.25;;
23384;SDS011;11865;45.394;10.978;2022-08-26T14:14:55;12.50;;;6.47;;
23384;SDS011;11865;45.394;10.978;2022-08-26T14:17:22;11.05;;;6.25;;
23384;SDS011;11865;45.394;10.978;2022-08-26T14:19:52;9.30;;;6.28;;
23384;SDS011;11865;45.394;10.978;2022-08-26T14:22:20;9.50;;;6.60;;
23384;SDS011;11865;45.394;10.978;2022-08-26T14:24:48;10.93;;;6.10;;
23384;SDS011;11865;45.394;10.978;2022-08-26T14:27:16;9.52;;;6.53;;
23384;SDS011;11865;45.394;10.978;2022-08-26T14:29:44;10.05;;;6.03;;
23384;SDS011;11865;45.394;10.978;2022-08-26T14:32:15;9.32;;;6.35;;
23384;SDS011;11865;45.394;10.978;2022-08-26T14:34:48;7.78;;;5.65;;
23384;SDS011;11865;45.394;10.978;2022-08-26T14:37:15;8.30;;;5.82;;
23384;SDS011;11865;45.394;10.978;2022-08-26T14:39:44;9.63;;;6.55;;
23384;SDS011;11865;45.394;10.978;2022-08-26T14:42:12;9.77;;;6.55;;
23384;SDS011;11865;45.394;10.978;2022-08-26T14:44:43;8.82;;;6.07;;
23384;SDS011;11865;45.394;10.978;2022-08-26T14:47:12;9.23;;;6.07;;
23384;SDS011;11865;45.394;10.978;2022-08-26T14:49:39;15.95;;;6.88;;
23384;SDS011;11865;45.394;10.978;2022-08-26T14:52:07;13.63;;;6.70;;
23384;SDS011;11865;45.394;10.978;2022-08-26T14:54:35;10.05;;;6.07;;
23384;SDS011;11865;45.394;10.978;2022-08-26T14:57:05;8.75;;;6.28;;
23384;SDS011;11865;45.394;10.978;2022-08-26T14:59:44;20.70;;;7.30;;
23384;SDS011;11865;45.394;10.978;2022-08-26T15:02:16;8.77;;;6.30;;
23384;SDS011;11865;45.394;10.978;2022-08-26T15:05:00;9.55;;;6.63;;
23384;SDS011;11865;45.394;10.978;2022-08-26T15:07:28;17.08;;;8.02;;
23384;SDS011;11865;45.394;10.978;2022-08-26T15:09:56;15.93;;;7.60;;
23384;SDS011;11865;45.394;10.978;2022-08-26T15:12:24;8.95;;;6.35;;
23384;SDS011;11865;45.394;10.978;2022-08-26T15:14:51;11.25;;;6.05;;
23384;SDS011;11865;45.394;10.978;2022-08-26T15:17:19;7.90;;;5.65;;
23384;SDS011;11865;45.394;10.978;2022-08-26T15:19:47;6.57;;;5.68;;
23384;SDS011;11865;45.394;10.978;2022-08-26T15:22:15;8.48;;;6.13;;
23384;SDS011;11865;45.394;10.978;2022-08-26T15:24:43;9.55;;;6.07;;
23384;SDS011;11865;45.394;10.978;2022-08-26T15:27:10;10.50;;;5.88;;
23384;SDS011;11865;45.394;10.978;2022-08-26T15:29:38;8.95;;;5.85;;
23384;SDS011;11865;45.394;10.978;2022-08-26T15:32:06;12.68;;;6.35;;
23384;SDS011;11865;45.394;10.978;2022-08-26T15:34:34;6.35;;;5.60;;
23384;SDS011;11865;45.394;10.978;2022-08-26T15:37:02;9.93;;;6.10;;
23384;SDS011;11865;45.394;10.978;2022-08-26T15:39:31;7.78;;;6.38;;
23384;SDS011;11865;45.394;10.978;2022-08-26T15:41:59;7.97;;;5.75;;
23384;SDS011;11865;45.394;10.978;2022-08-26T15:44:27;9.75;;;5.97;;
23384;SDS011;11865;45.394;10.978;2022-08-26T15:46:54;8.23;;;6.28;;
23384;SDS011;11865;45.394;10.978;2022-08-26T15:49:24;10.95;;;6.43;;
23384;SDS011;11865;45.394;10.978;2022-08-26T15:51:53;10.05;;;6.32;;
23384;SDS011;11865;45.394;10.978;2022-08-26T15:54:21;12.52;;;6.22;;
23384;SDS011;11865;45.394;10.978;2022-08-26T15:56:49;15.68;;;6.07;;
23384;SDS011;11865;45.394;10.978;2022-08-26T15:59:19;8.90;;;6.00;;
23384;SDS011;11865;45.394;10.978;2022-08-26T16:01:48;9.60;;;6.07;;
23384;SDS011;11865;45.394;10.978;2022-08-26T16:04:16;9.15;;;5.88;;
23384;SDS011;11865;45.394;10.978;2022-08-26T16:06:45;8.98;;;6.18;;
23384;SDS011;11865;45.394;10.978;2022-08-26T16:09:15;10.48;;;5.90;;
23384;SDS011;11865;45.394;10.978;2022-08-26T16:11:43;9.48;;;6.18;;
23384;SDS011;11865;45.394;10.978;2022-08-26T16:14:11;10.85;;;6.38;;